sensor_id;sensor_type;location;lat;lon;timestamp;pressure;altitude;pressure_sealevel;temperature;humidity
46394;BME280;32099;53.588;10.176;2023-09-12T00:00:15;100866.56;;;21.37;73.20
46394;BME280;32099;53.588;10.176;2023-09-12T00:02:41;100862.03;;;21.31;75.03
46394;BME280;32099;53.588;10.176;2023-09-12T00:05:06;100861.13;;;21.25;74.48
46394;BME280;32099;53.588;10.176;2023-09-12T00:07:32;100869.16;;;21.26;74.27
46394;BME280;32099;53.588;10.176;2023-09-12T00:09:57;100870.25;;;21.25;75.23
46394;BME280;32099;53.588;10.176;2023-09-12T00:12:23;100857.47;;;21.24;74.79
46394;BME280;32099;53.588;10.176;2023-09-12T00:14:49;100868.34;;;21.26;74.59
46394;BME280;32099;53.588;10.176;2023-09-12T00:17:15;100869.66;;;21.23;74.86
46394;BME280;32099;53.588;10.176;2023-09-12T00:19:40;100886.91;;;21.25;76.01
46394;BME280;32099;53.588;10.176;2023-09-12T00:22:05;100886.06;;;21.25;75.36
46394;BME280;32099;53.588;10.176;2023-09-12T00:24:31;100887.97;;;21.24;76.00
46394;BME280;32099;53.588;10.176;2023-09-12T00:26:56;100887.75;;;21.26;76.23
46394;BME280;32099;53.588;10.176;2023-09-12T00:29:21;100877.25;;;21.28;75.91
46394;BME280;32099;53.588;10.176;2023-09-12T00:31:47;100880.84;;;21.29;76.35
46394;BME280;32099;53.588;10.176;2023-09-12T00:34:18;100882.44;;;21.24;77.24
46394;BME280;32099;53.588;10.176;2023-09-12T00:36:43;100883.03;;;21.26;78.07
46394;BME280;32099;53.588;10.176;2023-09-12T00:39:09;100890.53;;;21.26;78.78
46394;BME280;32099;53.588;10.176;2023-09-12T00:41:44;100878.56;;;21.25;78.77
46394;BME280;32099;53.588;10.176;2023-09-12T00:44:09;100864.22;;;21.29;78.03
46394;BME280;32099;53.588;10.176;2023-09-12T00:46:35;100869.50;;;21.30;77.34
46394;BME280;32099;53.588;10.176;2023-09-12T00:49:01;100872.88;;;21.32;77.44
46394;BME280;32099;53.588;10.176;2023-09-12T00:51:29;100864.31;;;21.34;77.69
46394;BME280;32099;53.588;10.176;2023-09-12T00:53:56;100856.81;;;21.34;77.67
46394;BME280;32099;53.588;10.176;2023-09-12T00:56:22;100860.19;;;21.36;77.37
46394;BME280;32099;53.588;10.176;2023-09-12T00:58:48;100862.47;;;21.39;77.66
46394;BME280;32099;53.588;10.176;2023-09-12T01:01:16;100863.28;;;21.40;78.47
46394;BME280;32099;53.588;10.176;2023-09-12T01:04:04;100869.66;;;21.40;77.74
46394;BME280;32099;53.588;10.176;2023-09-12T01:06:30;100862.19;;;21.41;77.87
46394;BME280;32099;53.588;10.176;2023-09-12T01:08:58;100868.25;;;21.38;77.81
46394;BME280;32099;53.588;10.176;2023-09-12T01:11:24;100859.09;;;21.37;77.96
46394;BME280;32099;53.588;10.176;2023-09-12T01:13:49;100857.41;;;21.36;78.16
46394;BME280;32099;53.588;10.176;2023-09-12T01:16:14;100861.28;;;21.35;77.75
46394;BME280;32099;53.588;10.176;2023-09-12T01:18:40;100856.56;;;21.36;77.87
46394;BME280;32099;53.588;10.176;2023-09-12T01:27:26;100839.91;;;21.36;78.11
46394;BME280;32099;53.588;10.176;2023-09-12T01:30:01;100845.91;;;21.27;77.57
46394;BME280;32099;53.588;10.176;2023-09-12T01:32:29;100837.84;;;21.26;77.69
46394;BME280;32099;53.588;10.176;2023-09-12T01:34:55;100830.34;;;21.26;77.66
46394;BME280;32099;53.588;10.176;2023-09-12T01:37:21;100833.97;;;21.27;77.98
46394;BME280;32099;53.588;10.176;2023-09-12T01:39:46;100815.66;;;21.26;77.90
46394;BME280;32099;53.588;10.176;2023-09-12T01:42:13;100810.94;;;21.26;77.55
46394;BME280;32099;53.588;10.176;2023-09-12T01:44:44;100809.03;;;21.27;77.79
46394;BME280;32099;53.588;10.176;2023-09-12T01:47:11;100805.06;;;21.23;78.34
46394;BME280;32099;53.588;10.176;2023-09-12T01:49:39;100800.00;;;21.20;77.91
46394;BME280;32099;53.588;10.176;2023-09-12T01:52:07;100794.47;;;21.20;78.00
46394;BME280;32099;53.588;10.176;2023-09-12T01:54:33;100783.66;;;21.18;78.00
46394;BME280;32099;53.588;10.176;2023-09-12T01:57:00;100779.19;;;21.17;78.48
46394;BME280;32099;53.588;10.176;2023-09-12T01:59:28;100775.00;;;21.15;78.35
46394;BME280;32099;53.588;10.176;2023-09-12T02:01:53;100773.81;;;21.10;78.70
46394;BME280;32099;53.588;10.176;2023-09-12T02:04:19;100776.31;;;21.12;78.73
46394;BME280;32099;53.588;10.176;2023-09-12T02:06:44;100776.59;;;21.10;78.79
46394;BME280;32099;53.588;10.176;2023-09-12T02:09:09;100785.72;;;21.11;79.01
46394;BME280;32099;53.588;10.176;2023-09-12T02:11:35;100780.19;;;21.11;78.52
46394;BME280;32099;53.588;10.176;2023-09-12T02:14:00;100789.63;;;21.10;78.68
46394;BME280;32099;53.588;10.176;2023-09-12T02:16:25;100806.00;;;21.11;79.18
46394;BME280;32099;53.588;10.176;2023-09-12T02:18:50;100831.28;;;21.15;78.88
46394;BME280;32099;53.588;10.176;2023-09-12T02:21:16;100837.91;;;21.14;79.05
46394;BME280;32099;53.588;10.176;2023-09-12T02:23:41;100847.09;;;21.15;78.95
46394;BME280;32099;53.588;10.176;2023-09-12T02:26:09;100849.00;;;21.14;79.25
46394;BME280;32099;53.588;10.176;2023-09-12T02:28:35;100852.84;;;21.13;79.63
46394;BME280;32099;53.588;10.176;2023-09-12T02:31:00;100858.41;;;21.13;79.63
46394;BME280;32099;53.588;10.176;2023-09-12T02:33:25;100865.03;;;21.12;79.36
46394;BME280;32099;53.588;10.176;2023-09-12T02:35:51;100879.97;;;21.11;80.17
46394;BME280;32099;53.588;10.176;2023-09-12T02:38:17;100850.59;;;21.10;79.42
46394;BME280;32099;53.588;10.176;2023-09-12T02:40:43;100868.66;;;21.13;79.62
46394;BME280;32099;53.588;10.176;2023-09-12T02:43:08;100874.44;;;21.11;79.40
46394;BME280;32099;53.588;10.176;2023-09-12T02:45:33;100872.44;;;21.06;79.76
46394;BME280;32099;53.588;10.176;2023-09-12T02:47:59;100883.50;;;21.06;79.70
46394;BME280;32099;53.588;10.176;2023-09-12T02:50:25;100886.88;;;21.08;79.92
46394;BME280;32099;53.588;10.176;2023-09-12T02:52:50;100885.53;;;21.11;79.67
46394;BME280;32099;53.588;10.176;2023-09-12T02:55:16;100883.94;;;21.15;79.73
46394;BME280;32099;53.588;10.176;2023-09-12T02:57:41;100870.34;;;21.14;79.45
46394;BME280;32099;53.588;10.176;2023-09-12T03:00:06;100876.13;;;21.12;79.65
46394;BME280;32099;53.588;10.176;2023-09-12T03:02:33;100888.81;;;21.08;79.46
46394;BME280;32099;53.588;10.176;2023-09-12T03:04:59;100886.88;;;21.08;79.93
46394;BME280;32099;53.588;10.176;2023-09-12T03:07:24;100896.63;;;21.11;80.03
46394;BME280;32099;53.588;10.176;2023-09-12T03:09:50;100889.41;;;21.10;79.92
46394;BME280;32099;53.588;10.176;2023-09-12T03:12:15;100886.66;;;21.10;80.37
46394;BME280;32099;53.588;10.176;2023-09-12T03:14:41;100890.25;;;21.10;80.22
46394;BME280;32099;53.588;10.176;2023-09-12T03:17:06;100881.66;;;21.12;79.60
46394;BME280;32099;53.588;10.176;2023-09-12T03:19:31;100873.63;;;21.10;79.71
46394;BME280;32099;53.588;10.176;2023-09-12T03:21:57;100874.69;;;21.09;80.29
46394;BME280;32099;53.588;10.176;2023-09-12T03:24:22;100875.56;;;21.10;80.03
46394;BME280;32099;53.588;10.176;2023-09-12T03:26:50;100883.88;;;21.10;80.57
46394;BME280;32099;53.588;10.176;2023-09-12T03:29:18;100892.19;;;21.10;80.28
46394;BME280;32099;53.588;10.176;2023-09-12T03:31:44;100892.75;;;21.12;80.64
46394;BME280;32099;53.588;10.176;2023-09-12T03:34:09;100910.47;;;21.11;80.65
46394;BME280;32099;53.588;10.176;2023-09-12T03:36:34;100901.06;;;21.12;81.06
46394;BME280;32099;53.588;10.176;2023-09-12T03:38:59;100898.56;;;21.10;80.68
46394;BME280;32099;53.588;10.176;2023-09-12T03:41:25;100899.91;;;21.08;80.84
46394;BME280;32099;53.588;10.176;2023-09-12T03:43:54;100891.06;;;21.11;80.94
46394;BME280;32099;53.588;10.176;2023-09-12T03:46:20;100875.03;;;21.13;80.99
46394;BME280;32099;53.588;10.176;2023-09-12T03:48:46;100883.34;;;21.13;81.33
46394;BME280;32099;53.588;10.176;2023-09-12T03:51:12;100902.75;;;21.13;81.17
46394;BME280;32099;53.588;10.176;2023-09-12T03:53:37;100898.66;;;21.16;80.93
46394;BME280;32099;53.588;10.176;2023-09-12T03:56:03;100906.13;;;21.15;81.49
46394;BME280;32099;53.588;10.176;2023-09-12T03:58:28;100907.81;;;21.16;81.27
46394;BME280;32099;53.588;10.176;2023-09-12T04:00:53;100904.22;;;21.16;81.55
46394;BME280;32099;53.588;10.176;2023-09-12T04:03:19;100899.22;;;21.18;81.53
46394;BME280;32099;53.588;10.176;2023-09-12T04:05:49;100885.13;;;21.19;81.45
46394;BME280;32099;53.588;10.176;2023-09-12T04:08:15;100873.19;;;21.19;81.34
46394;BME280;32099;53.588;10.176;2023-09-12T04:10:42;100871.78;;;21.16;81.37
46394;BME280;32099;53.588;10.176;2023-09-12T04:13:07;100868.41;;;21.14;81.17
46394;BME280;32099;53.588;10.176;2023-09-12T04:15:33;100867.81;;;21.12;81.82
46394;BME280;32099;53.588;10.176;2023-09-12T04:18:00;100859.75;;;21.10;82.25
46394;BME280;32099;53.588;10.176;2023-09-12T04:20:26;100860.59;;;21.11;83.26
46394;BME280;32099;53.588;10.176;2023-09-12T04:22:51;100862.53;;;21.10;83.73
46394;BME280;32099;53.588;10.176;2023-09-12T04:25:16;100860.25;;;21.07;83.79
46394;BME280;32099;53.588;10.176;2023-09-12T04:27:45;100849.69;;;21.04;84.68
46394;BME280;32099;53.588;10.176;2023-09-12T04:30:10;100834.13;;;21.03;84.91
46394;BME280;32099;53.588;10.176;2023-09-12T04:32:36;100821.59;;;21.01;84.52
46394;BME280;32099;53.588;10.176;2023-09-12T04:35:01;100812.72;;;20.99;83.27
46394;BME280;32099;53.588;10.176;2023-09-12T04:37:26;100822.63;;;20.94;83.61
46394;BME280;32099;53.588;10.176;2023-09-12T04:39:51;100840.81;;;20.90;83.44
46394;BME280;32099;53.588;10.176;2023-09-12T04:42:17;100829.50;;;20.92;83.32
46394;BME280;32099;53.588;10.176;2023-09-12T04:44:42;100829.75;;;20.90;82.93
46394;BME280;32099;53.588;10.176;2023-09-12T04:47:08;100833.09;;;20.92;82.92
46394;BME280;32099;53.588;10.176;2023-09-12T04:49:34;100817.91;;;20.95;82.51
46394;BME280;32099;53.588;10.176;2023-09-12T04:52:00;100816.00;;;20.95;82.65
46394;BME280;32099;53.588;10.176;2023-09-12T04:54:25;100807.34;;;20.92;82.68
46394;BME280;32099;53.588;10.176;2023-09-12T04:56:51;100810.00;;;20.87;82.73
46394;BME280;32099;53.588;10.176;2023-09-12T04:59:16;100825.56;;;20.88;83.37
46394;BME280;32099;53.588;10.176;2023-09-12T05:01:42;100828.91;;;20.90;83.13
46394;BME280;32099;53.588;10.176;2023-09-12T05:04:10;100839.16;;;20.89;83.05
46394;BME280;32099;53.588;10.176;2023-09-12T05:06:35;100840.59;;;20.92;83.12
46394;BME280;32099;53.588;10.176;2023-09-12T05:09:01;100847.47;;;20.89;82.88
46394;BME280;32099;53.588;10.176;2023-09-12T05:11:26;100835.56;;;20.89;83.19
46394;BME280;32099;53.588;10.176;2023-09-12T05:13:52;100847.13;;;20.86;82.87
46394;BME280;32099;53.588;10.176;2023-09-12T05:16:18;100861.25;;;20.84;83.76
46394;BME280;32099;53.588;10.176;2023-09-12T05:18:43;100877.75;;;20.79;84.33
46394;BME280;32099;53.588;10.176;2023-09-12T05:21:08;100885.34;;;20.72;85.11
46394;BME280;32099;53.588;10.176;2023-09-12T05:23:33;100898.00;;;20.68;85.17
46394;BME280;32099;53.588;10.176;2023-09-12T05:25:59;100902.13;;;20.65;85.61
46394;BME280;32099;53.588;10.176;2023-09-12T05:28:24;100905.16;;;20.63;85.87
46394;BME280;32099;53.588;10.176;2023-09-12T05:30:49;100906.72;;;20.59;86.44
46394;BME280;32099;53.588;10.176;2023-09-12T05:33:15;100908.41;;;20.60;85.91
46394;BME280;32099;53.588;10.176;2023-09-12T05:35:40;100911.53;;;20.64;85.66
46394;BME280;32099;53.588;10.176;2023-09-12T05:38:05;100902.38;;;20.63;86.03
46394;BME280;32099;53.588;10.176;2023-09-12T05:40:31;100907.41;;;20.66;85.88
46394;BME280;32099;53.588;10.176;2023-09-12T05:42:56;100903.31;;;20.69;85.38
46394;BME280;32099;53.588;10.176;2023-09-12T05:45:22;100900.28;;;20.71;85.50
46394;BME280;32099;53.588;10.176;2023-09-12T05:47:47;100901.13;;;20.71;86.21
46394;BME280;32099;53.588;10.176;2023-09-12T05:50:13;100903.06;;;20.71;85.54
46394;BME280;32099;53.588;10.176;2023-09-12T05:52:38;100897.03;;;20.74;85.44
46394;BME280;32099;53.588;10.176;2023-09-12T05:55:04;100890.19;;;20.76;85.50
46394;BME280;32099;53.588;10.176;2023-09-12T05:57:30;100882.22;;;20.80;85.25
46394;BME280;32099;53.588;10.176;2023-09-12T05:59:58;100876.19;;;20.83;85.31
46394;BME280;32099;53.588;10.176;2023-09-12T06:02:29;100880.16;;;20.87;86.35
46394;BME280;32099;53.588;10.176;2023-09-12T06:04:55;100888.19;;;20.89;85.89
46394;BME280;32099;53.588;10.176;2023-09-12T06:07:22;100903.81;;;20.95;85.46
46394;BME280;32099;53.588;10.176;2023-09-12T06:09:47;100883.66;;;21.00;84.74
46394;BME280;32099;53.588;10.176;2023-09-12T06:12:12;100867.91;;;21.00;84.42
46394;BME280;32099;53.588;10.176;2023-09-12T06:14:38;100877.03;;;21.01;84.66
46394;BME280;32099;53.588;10.176;2023-09-12T06:17:03;100877.63;;;21.03;84.62
46394;BME280;32099;53.588;10.176;2023-09-12T06:19:28;100861.84;;;21.03;84.37
46394;BME280;32099;53.588;10.176;2023-09-12T06:21:55;100862.69;;;21.04;84.58
46394;BME280;32099;53.588;10.176;2023-09-12T06:24:20;100879.31;;;21.04;84.47
46394;BME280;32099;53.588;10.176;2023-09-12T06:26:46;100883.78;;;21.05;84.67
46394;BME280;32099;53.588;10.176;2023-09-12T06:29:12;100887.63;;;21.04;84.54
46394;BME280;32099;53.588;10.176;2023-09-12T06:31:38;100891.00;;;21.06;84.99
46394;BME280;32099;53.588;10.176;2023-09-12T06:34:06;100889.91;;;21.07;85.75
46394;BME280;32099;53.588;10.176;2023-09-12T06:36:32;100897.63;;;21.05;86.55
46394;BME280;32099;53.588;10.176;2023-09-12T06:38:57;100905.63;;;21.01;85.81
46394;BME280;32099;53.588;10.176;2023-09-12T06:41:24;100910.41;;;21.06;85.26
46394;BME280;32099;53.588;10.176;2023-09-12T06:43:50;100914.72;;;21.14;85.52
46394;BME280;32099;53.588;10.176;2023-09-12T06:46:15;100909.50;;;21.17;85.55
46394;BME280;32099;53.588;10.176;2023-09-12T06:48:42;100907.75;;;21.28;84.74
46394;BME280;32099;53.588;10.176;2023-09-12T06:51:08;100922.78;;;21.32;84.57
46394;BME280;32099;53.588;10.176;2023-09-12T06:53:34;100924.19;;;21.35;84.48
46394;BME280;32099;53.588;10.176;2023-09-12T06:56:02;100919.84;;;21.39;84.46
46394;BME280;32099;53.588;10.176;2023-09-12T06:58:27;100923.38;;;21.34;85.36
46394;BME280;32099;53.588;10.176;2023-09-12T07:00:53;100929.34;;;21.26;85.36
46394;BME280;32099;53.588;10.176;2023-09-12T07:03:18;100937.66;;;21.26;85.26
46394;BME280;32099;53.588;10.176;2023-09-12T07:05:43;100928.09;;;21.34;85.12
46394;BME280;32099;53.588;10.176;2023-09-12T07:08:09;100930.94;;;21.39;84.89
46394;BME280;32099;53.588;10.176;2023-09-12T07:10:35;100925.72;;;21.42;84.80
46394;BME280;32099;53.588;10.176;2023-09-12T07:13:00;100924.03;;;21.41;85.17
46394;BME280;32099;53.588;10.176;2023-09-12T07:15:26;100931.03;;;21.44;85.25
46394;BME280;32099;53.588;10.176;2023-09-12T07:17:51;100925.31;;;21.51;85.03
46394;BME280;32099;53.588;10.176;2023-09-12T07:20:17;100925.66;;;21.54;84.75
46394;BME280;32099;53.588;10.176;2023-09-12T07:22:43;100927.44;;;21.61;84.75
46394;BME280;32099;53.588;10.176;2023-09-12T07:25:08;100926.34;;;21.62;85.45
46394;BME280;32099;53.588;10.176;2023-09-12T07:27:36;100926.09;;;21.63;85.09
46394;BME280;32099;53.588;10.176;2023-09-12T07:30:02;100920.63;;;21.68;85.09
46394;BME280;32099;53.588;10.176;2023-09-12T07:32:28;100918.44;;;21.70;85.11
46394;BME280;32099;53.588;10.176;2023-09-12T07:34:54;100915.34;;;21.67;85.08
46394;BME280;32099;53.588;10.176;2023-09-12T07:37:19;100922.22;;;21.64;85.08
46394;BME280;32099;53.588;10.176;2023-09-12T07:39:44;100919.72;;;21.63;86.40
46394;BME280;32099;53.588;10.176;2023-09-12T07:42:10;100920.22;;;21.60;87.04
46394;BME280;32099;53.588;10.176;2023-09-12T07:44:35;100922.03;;;21.54;86.98
46394;BME280;32099;53.588;10.176;2023-09-12T07:47:01;100917.56;;;21.53;85.57
46394;BME280;32099;53.588;10.176;2023-09-12T07:49:26;100905.38;;;21.54;86.92
46394;BME280;32099;53.588;10.176;2023-09-12T07:51:51;100898.69;;;21.50;86.86
46394;BME280;32099;53.588;10.176;2023-09-12T07:54:17;100903.63;;;21.48;86.58
46394;BME280;32099;53.588;10.176;2023-09-12T07:56:42;100900.25;;;21.46;86.74
46394;BME280;32099;53.588;10.176;2023-09-12T07:59:08;100910.88;;;21.49;87.07
46394;BME280;32099;53.588;10.176;2023-09-12T08:04:00;100917.44;;;21.60;86.93
46394;BME280;32099;53.588;10.176;2023-09-12T08:06:25;100926.63;;;21.60;87.00
46394;BME280;32099;53.588;10.176;2023-09-12T08:08:50;100922.75;;;21.61;86.21
46394;BME280;32099;53.588;10.176;2023-09-12T08:11:16;100923.91;;;21.65;86.62
46394;BME280;32099;53.588;10.176;2023-09-12T08:13:41;100922.91;;;21.71;86.78
46394;BME280;32099;53.588;10.176;2023-09-12T08:16:06;100934.59;;;21.73;86.68
46394;BME280;32099;53.588;10.176;2023-09-12T08:18:31;100938.28;;;21.79;85.50
46394;BME280;32099;53.588;10.176;2023-09-12T08:20:57;100946.19;;;21.87;86.88
46394;BME280;32099;53.588;10.176;2023-09-12T08:23:22;100953.25;;;21.95;85.37
46394;BME280;32099;53.588;10.176;2023-09-12T08:25:48;100945.56;;;22.02;86.28
46394;BME280;32099;53.588;10.176;2023-09-12T08:28:14;100940.66;;;22.10;85.28
46394;BME280;32099;53.588;10.176;2023-09-12T08:30:39;100951.34;;;22.18;84.81
46394;BME280;32099;53.588;10.176;2023-09-12T08:33:04;100954.72;;;22.20;85.83
46394;BME280;32099;53.588;10.176;2023-09-12T08:35:31;100954.34;;;22.16;83.84
46394;BME280;32099;53.588;10.176;2023-09-12T08:37:57;100957.66;;;22.13;84.45
46394;BME280;32099;53.588;10.176;2023-09-12T08:40:22;100949.53;;;22.07;83.71
46394;BME280;32099;53.588;10.176;2023-09-12T08:42:48;100948.94;;;22.04;84.29
46394;BME280;32099;53.588;10.176;2023-09-12T08:45:18;100945.06;;;22.06;84.61
46394;BME280;32099;53.588;10.176;2023-09-12T08:47:45;100965.66;;;22.10;84.50
46394;BME280;32099;53.588;10.176;2023-09-12T08:50:15;100960.94;;;22.10;84.67
46394;BME280;32099;53.588;10.176;2023-09-12T08:52:44;100972.31;;;22.09;84.29
46394;BME280;32099;53.588;10.176;2023-09-12T08:55:11;100970.97;;;22.11;84.52
46394;BME280;32099;53.588;10.176;2023-09-12T08:57:40;100966.91;;;22.19;85.63
46394;BME280;32099;53.588;10.176;2023-09-12T09:00:07;100981.13;;;22.23;84.28
46394;BME280;32099;53.588;10.176;2023-09-12T09:02:34;100965.88;;;22.25;84.66
46394;BME280;32099;53.588;10.176;2023-09-12T09:05:01;100982.53;;;22.42;84.53
46394;BME280;32099;53.588;10.176;2023-09-12T09:07:30;100981.25;;;22.50;83.92
46394;BME280;32099;53.588;10.176;2023-09-12T09:09:58;100972.97;;;22.55;84.12
46394;BME280;32099;53.588;10.176;2023-09-12T09:12:26;100975.22;;;22.58;82.79
46394;BME280;32099;53.588;10.176;2023-09-12T09:14:52;100977.03;;;22.70;82.23
46394;BME280;32099;53.588;10.176;2023-09-12T09:17:18;100974.97;;;22.82;83.28
46394;BME280;32099;53.588;10.176;2023-09-12T09:19:44;100980.06;;;22.90;82.13
46394;BME280;32099;53.588;10.176;2023-09-12T09:22:10;100976.75;;;22.93;82.08
46394;BME280;32099;53.588;10.176;2023-09-12T09:24:35;100972.09;;;22.99;82.65
46394;BME280;32099;53.588;10.176;2023-09-12T09:27:00;100979.06;;;23.02;81.75
46394;BME280;32099;53.588;10.176;2023-09-12T09:29:26;100986.84;;;23.00;81.75
46394;BME280;32099;53.588;10.176;2023-09-12T09:32:01;100982.31;;;22.93;82.58
46394;BME280;32099;53.588;10.176;2023-09-12T09:34:27;100986.97;;;22.88;82.42
46394;BME280;32099;53.588;10.176;2023-09-12T09:36:54;100985.31;;;22.87;82.64
46394;BME280;32099;53.588;10.176;2023-09-12T09:39:25;100983.41;;;22.92;82.09
46394;BME280;32099;53.588;10.176;2023-09-12T09:41:54;100981.81;;;22.96;81.27
46394;BME280;32099;53.588;10.176;2023-09-12T09:44:21;100983.81;;;23.01;82.01
46394;BME280;32099;53.588;10.176;2023-09-12T09:46:50;100984.22;;;23.15;81.86
46394;BME280;32099;53.588;10.176;2023-09-12T09:49:19;100976.06;;;23.31;80.72
46394;BME280;32099;53.588;10.176;2023-09-12T09:51:45;100975.91;;;23.42;80.10
46394;BME280;32099;53.588;10.176;2023-09-12T09:54:11;100964.84;;;23.53;80.40
46394;BME280;32099;53.588;10.176;2023-09-12T09:56:58;100973.16;;;23.80;80.03
46394;BME280;32099;53.588;10.176;2023-09-12T09:59:23;100973.88;;;23.98;78.81
46394;BME280;32099;53.588;10.176;2023-09-12T10:01:50;100979.75;;;24.01;78.47
46394;BME280;32099;53.588;10.176;2023-09-12T10:04:19;100997.31;;;24.02;79.20
46394;BME280;32099;53.588;10.176;2023-09-12T10:06:45;101001.19;;;24.01;78.07
46394;BME280;32099;53.588;10.176;2023-09-12T10:09:14;101002.00;;;23.96;78.06
46394;BME280;32099;53.588;10.176;2023-09-12T10:11:42;101005.56;;;23.92;78.06
46394;BME280;32099;53.588;10.176;2023-09-12T10:14:08;100994.59;;;23.80;77.89
46394;BME280;32099;53.588;10.176;2023-09-12T10:16:35;101004.25;;;23.72;78.91
46394;BME280;32099;53.588;10.176;2023-09-12T10:19:07;101001.59;;;23.55;78.49
46394;BME280;32099;53.588;10.176;2023-09-12T10:21:40;100994.28;;;23.44;79.12
46394;BME280;32099;53.588;10.176;2023-09-12T10:24:13;101002.47;;;23.28;78.89
46394;BME280;32099;53.588;10.176;2023-09-12T10:26:40;101005.47;;;23.21;79.54
46394;BME280;32099;53.588;10.176;2023-09-12T10:29:09;101000.88;;;23.10;80.11
46394;BME280;32099;53.588;10.176;2023-09-12T10:31:37;100998.59;;;23.07;80.62
46394;BME280;32099;53.588;10.176;2023-09-12T10:34:02;100998.03;;;23.05;80.71
46394;BME280;32099;53.588;10.176;2023-09-12T10:36:31;100999.97;;;23.04;80.45
46394;BME280;32099;53.588;10.176;2023-09-12T10:38:57;100992.47;;;23.05;81.12
46394;BME280;32099;53.588;10.176;2023-09-12T10:41:24;100996.34;;;23.04;80.22
46394;BME280;32099;53.588;10.176;2023-09-12T10:43:50;100992.97;;;23.02;80.89
46394;BME280;32099;53.588;10.176;2023-09-12T10:46:18;100984.00;;;22.94;80.43
46394;BME280;32099;53.588;10.176;2023-09-12T10:48:44;100985.06;;;22.88;80.79
46394;BME280;32099;53.588;10.176;2023-09-12T10:51:10;100981.13;;;22.84;81.25
46394;BME280;32099;53.588;10.176;2023-09-12T10:53:38;100989.44;;;22.84;81.09
46394;BME280;32099;53.588;10.176;2023-09-12T10:56:20;100984.97;;;22.83;82.07
46394;BME280;32099;53.588;10.176;2023-09-12T11:01:32;100986.41;;;22.86;81.27
46394;BME280;32099;53.588;10.176;2023-09-12T11:04:04;100988.16;;;22.92;81.65
46394;BME280;32099;53.588;10.176;2023-09-12T11:06:44;100988.78;;;22.99;81.50
46394;BME280;32099;53.588;10.176;2023-09-12T11:11:39;100998.28;;;23.03;81.36
46394;BME280;32099;53.588;10.176;2023-09-12T11:14:07;100991.09;;;23.07;81.42
46394;BME280;32099;53.588;10.176;2023-09-12T11:16:38;100991.44;;;23.11;81.22
46394;BME280;32099;53.588;10.176;2023-09-12T11:21:51;100997.44;;;23.03;80.55
46394;BME280;32099;53.588;10.176;2023-09-12T11:24:18;100997.72;;;23.01;80.02
46394;BME280;32099;53.588;10.176;2023-09-12T11:27:00;101000.19;;;22.98;79.87
46394;BME280;32099;53.588;10.176;2023-09-12T11:29:30;100999.28;;;22.92;80.72
46394;BME280;32099;53.588;10.176;2023-09-12T11:32:01;100990.63;;;22.88;79.99
46394;BME280;32099;53.588;10.176;2023-09-12T11:34:28;100992.53;;;22.88;79.96
46394;BME280;32099;53.588;10.176;2023-09-12T11:36:57;100991.63;;;22.82;79.73
46394;BME280;32099;53.588;10.176;2023-09-12T11:39:25;100989.97;;;22.81;80.86
46394;BME280;32099;53.588;10.176;2023-09-12T11:41:55;100992.09;;;22.74;80.54
46394;BME280;32099;53.588;10.176;2023-09-12T11:44:21;100989.84;;;22.71;80.52
46394;BME280;32099;53.588;10.176;2023-09-12T11:46:48;100989.53;;;22.67;80.82
46394;BME280;32099;53.588;10.176;2023-09-12T11:49:14;100986.44;;;22.63;81.81
46394;BME280;32099;53.588;10.176;2023-09-12T11:51:53;100983.69;;;22.69;81.73
46394;BME280;32099;53.588;10.176;2023-09-12T11:54:25;100996.31;;;22.76;81.73
46394;BME280;32099;53.588;10.176;2023-09-12T11:56:52;100988.28;;;22.80;81.70
46394;BME280;32099;53.588;10.176;2023-09-12T11:59:27;101001.16;;;22.86;81.80
46394;BME280;32099;53.588;10.176;2023-09-12T12:01:54;100998.41;;;22.91;82.84
46394;BME280;32099;53.588;10.176;2023-09-12T12:04:20;101001.47;;;22.90;82.01
46394;BME280;32099;53.588;10.176;2023-09-12T12:06:47;100998.38;;;22.86;81.31
46394;BME280;32099;53.588;10.176;2023-09-12T12:09:14;100996.09;;;22.83;81.84
46394;BME280;32099;53.588;10.176;2023-09-12T12:11:43;101002.19;;;22.80;82.03
46394;BME280;32099;53.588;10.176;2023-09-12T12:14:17;100995.78;;;22.79;81.52
46394;BME280;32099;53.588;10.176;2023-09-12T12:16:44;100989.13;;;22.80;81.56
46394;BME280;32099;53.588;10.176;2023-09-12T12:19:11;100988.03;;;22.82;81.64
46394;BME280;32099;53.588;10.176;2023-09-12T12:21:37;100984.41;;;22.81;81.58
46394;BME280;32099;53.588;10.176;2023-09-12T12:24:04;100978.00;;;22.80;81.56
46394;BME280;32099;53.588;10.176;2023-09-12T12:26:30;100978.59;;;22.83;82.09
46394;BME280;32099;53.588;10.176;2023-09-12T12:28:55;100975.81;;;22.83;81.94
46394;BME280;32099;53.588;10.176;2023-09-12T12:31:21;100971.09;;;22.83;81.38
46394;BME280;32099;53.588;10.176;2023-09-12T12:33:49;100958.56;;;22.80;81.21
46394;BME280;32099;53.588;10.176;2023-09-12T12:36:18;100948.78;;;22.78;82.05
46394;BME280;32099;53.588;10.176;2023-09-12T12:38:45;100935.16;;;22.76;81.84
46394;BME280;32099;53.588;10.176;2023-09-12T12:41:13;100928.22;;;22.79;81.85
46394;BME280;32099;53.588;10.176;2023-09-12T12:43:39;100929.31;;;22.78;81.11
46394;BME280;32099;53.588;10.176;2023-09-12T12:46:09;100917.38;;;22.77;81.98
46394;BME280;32099;53.588;10.176;2023-09-12T12:48:37;100910.44;;;22.80;81.36
46394;BME280;32099;53.588;10.176;2023-09-12T12:51:22;100897.66;;;22.79;81.55
46394;BME280;32099;53.588;10.176;2023-09-12T12:53:49;100894.31;;;22.77;81.62